sensor_id;sensor_type;location;lat;lon;timestamp;P1;durP1;ratioP1;P2;durP2;ratioP2
12884;SDS011;6510;51.362;7.370;2022-09-03T00:01:05;3.07;;;1.43;;
12884;SDS011;6510;51.362;7.370;2022-09-03T00:03:43;1.60;;;1.17;;
12884;SDS011;6510;51.362;7.370;2022-09-03T00:06:16;1.27;;;1.17;;
12884;SDS011;6510;51.362;7.370;2022-09-03T00:11:26;1.13;;;1.13;;
12884;SDS011;6510;51.362;7.370;2022-09-03T00:14:18;1.47;;;1.10;;
12884;SDS011;6510;51.362;7.370;2022-09-03T00:16:59;1.70;;;1.13;;
12884;SDS011;6510;51.362;7.370;2022-09-03T00:19:34;1.33;;;1.10;;
12884;SDS011;6510;51.362;7.370;2022-09-03T00:22:08;1.30;;;1.20;;
12884;SDS011;6510;51.362;7.370;2022-09-03T00:24:38;1.30;;;1.20;;
12884;SDS011;6510;51.362;7.370;2022-09-03T00:27:08;3.60;;;1.10;;
12884;SDS011;6510;51.362;7.370;2022-09-03T00:29:40;3.10;;;1.13;;
12884;SDS011;6510;51.362;7.370;2022-09-03T00:32:35;1.43;;;1.10;;
12884;SDS011;6510;51.362;7.370;2022-09-03T00:35:26;1.67;;;1.27;;
12884;SDS011;6510;51.362;7.370;2022-09-03T00:37:56;1.40;;;1.20;;
12884;SDS011;6510;51.362;7.370;2022-09-03T00:43:07;1.33;;;1.23;;
12884;SDS011;6510;51.362;7.370;2022-09-03T00:46:03;1.00;;;1.00;;
12884;SDS011;6510;51.362;7.370;2022-09-03T00:48:32;0.90;;;0.90;;
12884;SDS011;6510;51.362;7.370;2022-09-03T00:51:26;2.20;;;1.10;;
12884;SDS011;6510;51.362;7.370;2022-09-03T01:02:06;1.20;;;1.10;;
12884;SDS011;6510;51.362;7.370;2022-09-03T01:13:23;2.43;;;1.10;;
12884;SDS011;6510;51.362;7.370;2022-09-03T01:30:17;1.30;;;1.20;;
12884;SDS011;6510;51.362;7.370;2022-09-03T01:32:50;1.87;;;1.10;;
12884;SDS011;6510;51.362;7.370;2022-09-03T01:44:12;1.20;;;1.10;;
12884;SDS011;6510;51.362;7.370;2022-09-03T01:47:13;1.57;;;0.90;;
12884;SDS011;6510;51.362;7.370;2022-09-03T01:49:58;1.53;;;1.20;;
12884;SDS011;6510;51.362;7.370;2022-09-03T01:58:01;2.13;;;1.50;;
12884;SDS011;6510;51.362;7.370;2022-09-03T02:00:36;2.23;;;1.17;;
12884;SDS011;6510;51.362;7.370;2022-09-03T02:03:06;3.23;;;1.30;;
12884;SDS011;6510;51.362;7.370;2022-09-03T02:05:33;1.57;;;1.00;;
12884;SDS011;6510;51.362;7.370;2022-09-03T02:08:06;1.00;;;1.00;;
12884;SDS011;6510;51.362;7.370;2022-09-03T02:13:12;1.20;;;1.20;;
12884;SDS011;6510;51.362;7.370;2022-09-03T02:15:43;1.77;;;1.37;;
12884;SDS011;6510;51.362;7.370;2022-09-03T02:18:20;1.10;;;1.10;;
12884;SDS011;6510;51.362;7.370;2022-09-03T02:20:49;1.93;;;1.20;;
12884;SDS011;6510;51.362;7.370;2022-09-03T02:23:17;1.70;;;1.40;;
12884;SDS011;6510;51.362;7.370;2022-09-03T02:25:44;2.37;;;1.20;;
12884;SDS011;6510;51.362;7.370;2022-09-03T02:28:14;2.63;;;1.20;;
12884;SDS011;6510;51.362;7.370;2022-09-03T02:30:41;1.23;;;1.13;;
12884;SDS011;6510;51.362;7.370;2022-09-03T02:33:07;1.40;;;1.30;;
12884;SDS011;6510;51.362;7.370;2022-09-03T02:35:36;1.20;;;1.20;;
12884;SDS011;6510;51.362;7.370;2022-09-03T02:38:32;1.80;;;1.17;;
12884;SDS011;6510;51.362;7.370;2022-09-03T02:40:57;2.73;;;1.10;;
12884;SDS011;6510;51.362;7.370;2022-09-03T02:43:25;1.33;;;1.27;;
12884;SDS011;6510;51.362;7.370;2022-09-03T02:46:04;1.30;;;1.20;;
12884;SDS011;6510;51.362;7.370;2022-09-03T02:48:32;1.23;;;1.13;;
12884;SDS011;6510;51.362;7.370;2022-09-03T02:50:58;2.33;;;1.20;;
12884;SDS011;6510;51.362;7.370;2022-09-03T02:53:25;2.33;;;1.23;;
12884;SDS011;6510;51.362;7.370;2022-09-03T02:55:56;1.20;;;1.10;;
12884;SDS011;6510;51.362;7.370;2022-09-03T02:58:23;1.10;;;1.00;;
12884;SDS011;6510;51.362;7.370;2022-09-03T03:00:48;1.30;;;1.20;;
12884;SDS011;6510;51.362;7.370;2022-09-03T03:03:14;1.63;;;1.17;;
12884;SDS011;6510;51.362;7.370;2022-09-03T03:05:47;1.20;;;1.10;;
12884;SDS011;6510;51.362;7.370;2022-09-03T03:08:14;1.40;;;1.30;;
12884;SDS011;6510;51.362;7.370;2022-09-03T03:10:41;1.70;;;1.00;;
12884;SDS011;6510;51.362;7.370;2022-09-03T03:13:10;1.00;;;1.00;;
12884;SDS011;6510;51.362;7.370;2022-09-03T03:15:37;1.30;;;1.20;;
12884;SDS011;6510;51.362;7.370;2022-09-03T03:18:03;1.17;;;1.17;;
12884;SDS011;6510;51.362;7.370;2022-09-03T03:20:28;1.20;;;1.10;;
12884;SDS011;6510;51.362;7.370;2022-09-03T03:22:55;1.40;;;1.30;;
12884;SDS011;6510;51.362;7.370;2022-09-03T03:25:20;1.30;;;1.20;;
12884;SDS011;6510;51.362;7.370;2022-09-03T03:27:46;1.77;;;1.27;;
12884;SDS011;6510;51.362;7.370;2022-09-03T03:30:12;1.37;;;1.20;;
12884;SDS011;6510;51.362;7.370;2022-09-03T03:32:38;1.87;;;1.20;;
12884;SDS011;6510;51.362;7.370;2022-09-03T03:35:04;1.20;;;1.20;;
12884;SDS011;6510;51.362;7.370;2022-09-03T03:37:31;1.30;;;1.20;;
12884;SDS011;6510;51.362;7.370;2022-09-03T03:39:59;1.40;;;1.10;;
12884;SDS011;6510;51.362;7.370;2022-09-03T03:42:25;1.00;;;1.00;;
12884;SDS011;6510;51.362;7.370;2022-09-03T03:44:50;1.77;;;1.17;;
12884;SDS011;6510;51.362;7.370;2022-09-03T03:47:16;1.13;;;1.03;;
12884;SDS011;6510;51.362;7.370;2022-09-03T03:49:42;3.40;;;1.37;;
12884;SDS011;6510;51.362;7.370;2022-09-03T03:52:08;1.27;;;0.97;;
12884;SDS011;6510;51.362;7.370;2022-09-03T03:54:33;1.20;;;1.20;;
12884;SDS011;6510;51.362;7.370;2022-09-03T03:56:59;1.53;;;1.40;;
12884;SDS011;6510;51.362;7.370;2022-09-03T03:59:25;1.37;;;1.17;;
12884;SDS011;6510;51.362;7.370;2022-09-03T04:01:53;1.10;;;1.10;;
12884;SDS011;6510;51.362;7.370;2022-09-03T04:04:19;1.93;;;1.03;;
12884;SDS011;6510;51.362;7.370;2022-09-03T04:06:44;0.90;;;0.90;;
12884;SDS011;6510;51.362;7.370;2022-09-03T04:09:10;1.67;;;1.20;;
12884;SDS011;6510;51.362;7.370;2022-09-03T04:11:36;3.07;;;1.50;;
12884;SDS011;6510;51.362;7.370;2022-09-03T04:14:02;1.00;;;1.00;;
12884;SDS011;6510;51.362;7.370;2022-09-03T04:16:27;1.23;;;1.17;;
12884;SDS011;6510;51.362;7.370;2022-09-03T04:18:54;1.83;;;1.20;;
12884;SDS011;6510;51.362;7.370;2022-09-03T04:21:28;1.10;;;1.10;;
12884;SDS011;6510;51.362;7.370;2022-09-03T04:23:54;3.53;;;1.10;;
12884;SDS011;6510;51.362;7.370;2022-09-03T04:26:25;2.20;;;1.43;;
12884;SDS011;6510;51.362;7.370;2022-09-03T04:29:02;1.33;;;1.00;;
12884;SDS011;6510;51.362;7.370;2022-09-03T04:31:32;1.27;;;0.77;;
12884;SDS011;6510;51.362;7.370;2022-09-03T04:33:58;1.13;;;1.13;;
12884;SDS011;6510;51.362;7.370;2022-09-03T04:36:25;1.13;;;1.10;;
12884;SDS011;6510;51.362;7.370;2022-09-03T04:38:53;1.10;;;1.10;;
12884;SDS011;6510;51.362;7.370;2022-09-03T04:41:21;1.83;;;1.00;;
12884;SDS011;6510;51.362;7.370;2022-09-03T04:43:51;1.00;;;1.00;;
12884;SDS011;6510;51.362;7.370;2022-09-03T04:46:19;2.10;;;1.30;;
12884;SDS011;6510;51.362;7.370;2022-09-03T04:48:47;1.80;;;1.00;;
12884;SDS011;6510;51.362;7.370;2022-09-03T04:51:18;0.97;;;0.97;;
12884;SDS011;6510;51.362;7.370;2022-09-03T04:53:46;1.00;;;1.00;;
12884;SDS011;6510;51.362;7.370;2022-09-03T04:56:21;3.03;;;1.03;;
12884;SDS011;6510;51.362;7.370;2022-09-03T04:58:52;2.20;;;0.97;;
12884;SDS011;6510;51.362;7.370;2022-09-03T05:01:27;2.97;;;1.23;;
12884;SDS011;6510;51.362;7.370;2022-09-03T05:03:54;1.83;;;1.10;;
12884;SDS011;6510;51.362;7.370;2022-09-03T05:06:21;1.40;;;1.00;;
12884;SDS011;6510;51.362;7.370;2022-09-03T05:08:47;3.17;;;1.00;;
12884;SDS011;6510;51.362;7.370;2022-09-03T05:11:17;1.27;;;1.17;;
12884;SDS011;6510;51.362;7.370;2022-09-03T05:13:46;2.17;;;1.00;;
12884;SDS011;6510;51.362;7.370;2022-09-03T05:16:13;1.63;;;1.33;;
12884;SDS011;6510;51.362;7.370;2022-09-03T05:18:39;1.00;;;1.00;;
12884;SDS011;6510;51.362;7.370;2022-09-03T05:21:10;2.77;;;1.27;;
12884;SDS011;6510;51.362;7.370;2022-09-03T05:23:39;1.60;;;1.10;;
12884;SDS011;6510;51.362;7.370;2022-09-03T05:26:07;1.17;;;1.10;;
12884;SDS011;6510;51.362;7.370;2022-09-03T05:28:35;1.20;;;1.10;;
12884;SDS011;6510;51.362;7.370;2022-09-03T05:31:04;1.40;;;1.30;;
12884;SDS011;6510;51.362;7.370;2022-09-03T05:33:35;2.13;;;0.93;;
12884;SDS011;6510;51.362;7.370;2022-09-03T05:36:03;2.70;;;0.90;;
12884;SDS011;6510;51.362;7.370;2022-09-03T05:38:30;0.83;;;0.83;;
12884;SDS011;6510;51.362;7.370;2022-09-03T05:40:57;1.20;;;1.03;;
12884;SDS011;6510;51.362;7.370;2022-09-03T05:43:27;1.10;;;1.00;;
12884;SDS011;6510;51.362;7.370;2022-09-03T05:45:57;1.10;;;1.10;;
12884;SDS011;6510;51.362;7.370;2022-09-03T05:48:30;1.63;;;1.20;;
12884;SDS011;6510;51.362;7.370;2022-09-03T05:51:00;1.83;;;1.20;;
12884;SDS011;6510;51.362;7.370;2022-09-03T05:53:31;1.60;;;1.10;;
12884;SDS011;6510;51.362;7.370;2022-09-03T05:55:59;1.10;;;1.00;;
12884;SDS011;6510;51.362;7.370;2022-09-03T05:58:30;1.23;;;1.10;;
12884;SDS011;6510;51.362;7.370;2022-09-03T06:00:56;1.73;;;1.10;;
12884;SDS011;6510;51.362;7.370;2022-09-03T06:03:22;1.20;;;1.10;;
12884;SDS011;6510;51.362;7.370;2022-09-03T06:05:51;0.97;;;0.97;;
12884;SDS011;6510;51.362;7.370;2022-09-03T06:08:18;1.40;;;1.30;;
12884;SDS011;6510;51.362;7.370;2022-09-03T06:10:45;1.20;;;1.10;;
12884;SDS011;6510;51.362;7.370;2022-09-03T06:13:10;2.27;;;1.10;;
12884;SDS011;6510;51.362;7.370;2022-09-03T06:15:36;1.00;;;1.00;;
12884;SDS011;6510;51.362;7.370;2022-09-03T06:18:02;1.30;;;1.20;;
12884;SDS011;6510;51.362;7.370;2022-09-03T06:20:28;1.58;;;1.10;;
12884;SDS011;6510;51.362;7.370;2022-09-03T06:22:55;1.20;;;1.10;;
12884;SDS011;6510;51.362;7.370;2022-09-03T06:25:20;2.83;;;1.30;;
12884;SDS011;6510;51.362;7.370;2022-09-03T06:27:46;1.40;;;1.30;;
12884;SDS011;6510;51.362;7.370;2022-09-03T06:30:13;1.30;;;1.20;;
12884;SDS011;6510;51.362;7.370;2022-09-03T06:32:44;1.45;;;1.35;;
12884;SDS011;6510;51.362;7.370;2022-09-03T06:35:11;1.20;;;1.20;;
12884;SDS011;6510;51.362;7.370;2022-09-03T06:37:40;2.30;;;1.30;;
12884;SDS011;6510;51.362;7.370;2022-09-03T06:40:07;1.30;;;1.00;;
12884;SDS011;6510;51.362;7.370;2022-09-03T06:42:36;1.10;;;1.10;;
12884;SDS011;6510;51.362;7.370;2022-09-03T06:45:06;0.90;;;0.90;;
12884;SDS011;6510;51.362;7.370;2022-09-03T06:47:33;1.58;;;1.20;;
12884;SDS011;6510;51.362;7.370;2022-09-03T06:49:59;4.57;;;1.20;;
12884;SDS011;6510;51.362;7.370;2022-09-03T06:52:25;2.15;;;1.20;;
12884;SDS011;6510;51.362;7.370;2022-09-03T06:54:52;1.80;;;1.20;;
12884;SDS011;6510;51.362;7.370;2022-09-03T06:57:17;1.45;;;1.30;;
12884;SDS011;6510;51.362;7.370;2022-09-03T06:59:43;1.70;;;1.10;;
12884;SDS011;6510;51.362;7.370;2022-09-03T07:02:09;2.85;;;1.30;;
12884;SDS011;6510;51.362;7.370;2022-09-03T07:04:35;2.92;;;1.10;;
12884;SDS011;6510;51.362;7.370;2022-09-03T07:07:00;1.40;;;1.25;;
12884;SDS011;6510;51.362;7.370;2022-09-03T07:09:26;1.30;;;1.20;;
12884;SDS011;6510;51.362;7.370;2022-09-03T07:11:52;1.92;;;1.15;;
12884;SDS011;6510;51.362;7.370;2022-09-03T07:14:19;1.23;;;1.15;;
12884;SDS011;6510;51.362;7.370;2022-09-03T07:16:46;4.72;;;1.30;;
12884;SDS011;6510;51.362;7.370;2022-09-03T07:19:13;1.90;;;1.25;;
12884;SDS011;6510;51.362;7.370;2022-09-03T07:21:40;1.65;;;1.20;;
12884;SDS011;6510;51.362;7.370;2022-09-03T07:24:07;1.67;;;1.30;;
12884;SDS011;6510;51.362;7.370;2022-09-03T07:26:37;1.50;;;1.40;;
12884;SDS011;6510;51.362;7.370;2022-09-03T07:29:05;2.22;;;1.52;;
12884;SDS011;6510;51.362;7.370;2022-09-03T07:31:36;2.15;;;1.30;;
12884;SDS011;6510;51.362;7.370;2022-09-03T07:34:04;3.33;;;1.27;;
12884;SDS011;6510;51.362;7.370;2022-09-03T07:36:50;1.20;;;1.20;;
12884;SDS011;6510;51.362;7.370;2022-09-03T07:39:16;2.47;;;1.33;;
12884;SDS011;6510;51.362;7.370;2022-09-03T07:41:42;1.40;;;1.30;;
12884;SDS011;6510;51.362;7.370;2022-09-03T07:44:09;2.42;;;1.20;;
12884;SDS011;6510;51.362;7.370;2022-09-03T07:46:40;1.55;;;1.30;;
12884;SDS011;6510;51.362;7.370;2022-09-03T07:49:07;3.25;;;1.42;;
12884;SDS011;6510;51.362;7.370;2022-09-03T07:51:34;1.60;;;1.50;;
12884;SDS011;6510;51.362;7.370;2022-09-03T07:54:01;2.55;;;1.70;;
12884;SDS011;6510;51.362;7.370;2022-09-03T07:56:30;1.60;;;1.40;;
12884;SDS011;6510;51.362;7.370;2022-09-03T07:58:56;2.42;;;1.30;;
12884;SDS011;6510;51.362;7.370;2022-09-03T08:01:23;1.38;;;1.27;;
12884;SDS011;6510;51.362;7.370;2022-09-03T08:03:51;2.28;;;1.55;;
12884;SDS011;6510;51.362;7.370;2022-09-03T08:06:18;1.40;;;1.30;;
12884;SDS011;6510;51.362;7.370;2022-09-03T08:08:45;1.58;;;1.48;;
12884;SDS011;6510;51.362;7.370;2022-09-03T08:13:52;1.92;;;1.60;;
12884;SDS011;6510;51.362;7.370;2022-09-03T08:16:21;2.00;;;1.60;;
12884;SDS011;6510;51.362;7.370;2022-09-03T08:18:48;1.98;;;1.63;;
12884;SDS011;6510;51.362;7.370;2022-09-03T08:21:16;1.45;;;1.35;;
12884;SDS011;6510;51.362;7.370;2022-09-03T08:23:54;1.60;;;1.50;;
12884;SDS011;6510;51.362;7.370;2022-09-03T08:26:27;1.27;;;1.27;;
12884;SDS011;6510;51.362;7.370;2022-09-03T08:28:55;2.97;;;1.45;;
12884;SDS011;6510;51.362;7.370;2022-09-03T08:31:21;1.70;;;1.60;;
12884;SDS011;6510;51.362;7.370;2022-09-03T08:33:49;1.67;;;1.58;;
12884;SDS011;6510;51.362;7.370;2022-09-03T08:36:17;3.00;;;1.55;;
12884;SDS011;6510;51.362;7.370;2022-09-03T08:38:45;1.88;;;1.73;;
12884;SDS011;6510;51.362;7.370;2022-09-03T08:49:10;1.50;;;1.40;;
12884;SDS011;6510;51.362;7.370;2022-09-03T08:51:40;1.15;;;1.15;;
12884;SDS011;6510;51.362;7.370;2022-09-03T08:54:08;3.42;;;1.67;;
12884;SDS011;6510;51.362;7.370;2022-09-03T08:56:37;1.45;;;1.40;;
12884;SDS011;6510;51.362;7.370;2022-09-03T08:59:06;2.38;;;1.60;;
12884;SDS011;6510;51.362;7.370;2022-09-03T09:04:23;3.40;;;1.80;;
12884;SDS011;6510;51.362;7.370;2022-09-03T09:07:31;2.95;;;1.60;;
12884;SDS011;6510;51.362;7.370;2022-09-03T09:12:35;1.85;;;1.60;;
12884;SDS011;6510;51.362;7.370;2022-09-03T09:15:11;1.63;;;1.50;;
12884;SDS011;6510;51.362;7.370;2022-09-03T09:18:01;1.70;;;1.55;;
12884;SDS011;6510;51.362;7.370;2022-09-03T09:20:50;1.60;;;1.50;;
12884;SDS011;6510;51.362;7.370;2022-09-03T09:23:34;3.20;;;1.77;;
12884;SDS011;6510;51.362;7.370;2022-09-03T09:26:05;4.10;;;1.83;;
12884;SDS011;6510;51.362;7.370;2022-09-03T09:28:35;1.67;;;1.58;;
12884;SDS011;6510;51.362;7.370;2022-09-03T09:31:03;2.67;;;1.88;;
12884;SDS011;6510;51.362;7.370;2022-09-03T09:33:31;2.65;;;1.60;;
12884;SDS011;6510;51.362;7.370;2022-09-03T09:36:02;2.03;;;1.77;;
12884;SDS011;6510;51.362;7.370;2022-09-03T09:38:39;1.50;;;1.42;;
12884;SDS011;6510;51.362;7.370;2022-09-03T09:43:39;2.00;;;1.60;;
12884;SDS011;6510;51.362;7.370;2022-09-03T09:46:19;1.80;;;1.70;;
12884;SDS011;6510;51.362;7.370;2022-09-03T09:48:50;1.90;;;1.80;;
12884;SDS011;6510;51.362;7.370;2022-09-03T09:51:21;2.83;;;1.70;;
12884;SDS011;6510;51.362;7.370;2022-09-03T09:56:43;3.25;;;1.80;;
12884;SDS011;6510;51.362;7.370;2022-09-03T09:59:11;1.75;;;1.65;;
12884;SDS011;6510;51.362;7.370;2022-09-03T10:01:43;2.45;;;1.75;;
12884;SDS011;6510;51.362;7.370;2022-09-03T10:07:26;1.80;;;1.65;;
12884;SDS011;6510;51.362;7.370;2022-09-03T10:18:07;2.25;;;1.60;;
12884;SDS011;6510;51.362;7.370;2022-09-03T10:20:44;2.50;;;1.83;;
12884;SDS011;6510;51.362;7.370;2022-09-03T10:28:31;2.78;;;1.80;;
12884;SDS011;6510;51.362;7.370;2022-09-03T10:45:07;1.83;;;1.73;;
12884;SDS011;6510;51.362;7.370;2022-09-03T10:50:30;2.28;;;2.00;;
12884;SDS011;6510;51.362;7.370;2022-09-03T10:53:20;2.38;;;1.88;;
12884;SDS011;6510;51.362;7.370;2022-09-03T10:56:12;2.45;;;1.85;;
12884;SDS011;6510;51.362;7.370;2022-09-03T11:04:18;4.22;;;1.95;;
12884;SDS011;6510;51.362;7.370;2022-09-03T11:07:03;1.80;;;1.70;;
12884;SDS011;6510;51.362;7.370;2022-09-03T11:12:28;2.03;;;1.83;;
12884;SDS011;6510;51.362;7.370;2022-09-03T11:15:05;2.58;;;1.60;;
12884;SDS011;6510;51.362;7.370;2022-09-03T11:17:40;2.00;;;1.65;;
12884;SDS011;6510;51.362;7.370;2022-09-03T11:20:13;2.58;;;1.77;;
12884;SDS011;6510;51.362;7.370;2022-09-03T11:22:54;1.88;;;1.77;;
12884;SDS011;6510;51.362;7.370;2022-09-03T11:25:25;1.67;;;1.58;;
12884;SDS011;6510;51.362;7.370;2022-09-03T11:33:44;1.75;;;1.65;;
12884;SDS011;6510;51.362;7.370;2022-09-03T11:36:35;1.73;;;1.63;;
12884;SDS011;6510;51.362;7.370;2022-09-03T11:39:17;3.20;;;1.73;;
12884;SDS011;6510;51.362;7.370;2022-09-03T11:42:00;4.43;;;1.80;;
12884;SDS011;6510;51.362;7.370;2022-09-03T11:44:37;1.75;;;1.52;;
12884;SDS011;6510;51.362;7.370;2022-09-03T11:47:12;2.53;;;1.67;;
12884;SDS011;6510;51.362;7.370;2022-09-03T11:49:47;1.63;;;1.52;;
12884;SDS011;6510;51.362;7.370;2022-09-03T11:52:25;1.80;;;1.70;;
12884;SDS011;6510;51.362;7.370;2022-09-03T11:54:52;1.75;;;1.65;;
12884;SDS011;6510;51.362;7.370;2022-09-03T11:57:40;1.73;;;1.55;;
12884;SDS011;6510;51.362;7.370;2022-09-03T12:00:15;2.38;;;1.73;;
12884;SDS011;6510;51.362;7.370;2022-09-03T12:02:56;2.00;;;1.80;;
12884;SDS011;6510;51.362;7.370;2022-09-03T12:05:42;1.80;;;1.65;;
12884;SDS011;6510;51.362;7.370;2022-09-03T12:13:50;2.10;;;1.90;;
12884;SDS011;6510;51.362;7.370;2022-09-03T12:19:24;2.25;;;1.83;;
12884;SDS011;6510;51.362;7.370;2022-09-03T12:21:57;2.58;;;2.03;;
12884;SDS011;6510;51.362;7.370;2022-09-03T12:24:25;4.35;;;2.40;;
12884;SDS011;6510;51.362;7.370;2022-09-03T12:26:56;1.90;;;1.80;;
12884;SDS011;6510;51.362;7.370;2022-09-03T12:29:25;2.13;;;1.85;;
12884;SDS011;6510;51.362;7.370;2022-09-03T12:32:03;2.97;;;2.00;;
12884;SDS011;6510;51.362;7.370;2022-09-03T12:34:35;2.25;;;1.85;;
12884;SDS011;6510;51.362;7.370;2022-09-03T12:37:01;2.42;;;2.00;;
12884;SDS011;6510;51.362;7.370;2022-09-03T12:39:28;2.20;;;2.10;;
12884;SDS011;6510;51.362;7.370;2022-09-03T12:41:59;2.90;;;2.20;;
12884;SDS011;6510;51.362;7.370;2022-09-03T12:47:03;2.10;;;2.00;;
12884;SDS011;6510;51.362;7.370;2022-09-03T12:49:42;2.33;;;2.13;;
12884;SDS011;6510;51.362;7.370;2022-09-03T12:54:50;2.10;;;1.92;;
12884;SDS011;6510;51.362;7.370;2022-09-03T12:57:34;2.72;;;2.10;;
12884;SDS011;6510;51.362;7.370;2022-09-03T13:00:09;2.03;;;1.92;;
12884;SDS011;6510;51.362;7.370;2022-09-03T13:05:16;2.22;;;2.05;;
12884;SDS011;6510;51.362;7.370;2022-09-03T13:07:50;3.95;;;2.35;;
12884;SDS011;6510;51.362;7.370;2022-09-03T13:10:29;2.17;;;2.00;;
12884;SDS011;6510;51.362;7.370;2022-09-03T13:12:59;3.13;;;2.00;;
12884;SDS011;6510;51.362;7.370;2022-09-03T13:15:27;2.58;;;2.17;;
12884;SDS011;6510;51.362;7.370;2022-09-03T13:21:03;2.38;;;2.00;;
12884;SDS011;6510;51.362;7.370;2022-09-03T13:24:15;2.20;;;2.10;;
12884;SDS011;6510;51.362;7.370;2022-09-03T13:31:47;2.33;;;2.13;;
12884;SDS011;6510;51.362;7.370;2022-09-03T13:34:21;2.30;;;2.10;;
12884;SDS011;6510;51.362;7.370;2022-09-03T13:37:22;2.40;;;2.20;;
12884;SDS011;6510;51.362;7.370;2022-09-03T13:40:03;2.10;;;2.00;;
12884;SDS011;6510;51.362;7.370;2022-09-03T13:42:40;2.70;;;2.13;;
12884;SDS011;6510;51.362;7.370;2022-09-03T13:45:27;2.30;;;2.10;;
12884;SDS011;6510;51.362;7.370;2022-09-03T13:47:59;2.28;;;2.10;;
12884;SDS011;6510;51.362;7.370;2022-09-03T13:50:56;2.40;;;2.30;;
12884;SDS011;6510;51.362;7.370;2022-09-03T13:53:48;2.30;;;2.20;;
12884;SDS011;6510;51.362;7.370;2022-09-03T13:56:31;2.42;;;2.25;;
12884;SDS011;6510;51.362;7.370;2022-09-03T13:59:07;2.60;;;2.05;;
12884;SDS011;6510;51.362;7.370;2022-09-03T14:09:57;2.35;;;2.03;;
12884;SDS011;6510;51.362;7.370;2022-09-03T14:13:31;3.35;;;2.20;;
12884;SDS011;6510;51.362;7.370;2022-09-03T14:15:45;2.22;;;2.13;;
12884;SDS011;6510;51.362;7.370;2022-09-03T14:18:40;2.63;;;2.10;;
12884;SDS011;6510;51.362;7.370;2022-09-03T14:21:09;2.22;;;2.13;;
12884;SDS011;6510;51.362;7.370;2022-09-03T14:26:32;2.65;;;2.45;;
12884;SDS011;6510;51.362;7.370;2022-09-03T14:29:03;2.45;;;2.10;;
12884;SDS011;6510;51.362;7.370;2022-09-03T14:31:51;2.33;;;2.13;;
12884;SDS011;6510;51.362;7.370;2022-09-03T14:55:04;1.90;;;1.77;;
12884;SDS011;6510;51.362;7.370;2022-09-03T15:00:29;2.70;;;1.92;;
12884;SDS011;6510;51.362;7.370;2022-09-03T15:05:40;2.08;;;1.80;;
12884;SDS011;6510;51.362;7.370;2022-09-03T15:08:22;2.08;;;1.95;;
12884;SDS011;6510;51.362;7.370;2022-09-03T15:11:14;1.98;;;1.88;;
12884;SDS011;6510;51.362;7.370;2022-09-03T15:13:51;1.90;;;1.80;;
12884;SDS011;6510;51.362;7.370;2022-09-03T15:22:48;1.98;;;1.63;;
12884;SDS011;6510;51.362;7.370;2022-09-03T15:33:51;2.65;;;1.70;;
12884;SDS011;6510;51.362;7.370;2022-09-03T15:37:12;3.83;;;2.00;;
12884;SDS011;6510;51.362;7.370;2022-09-03T15:39:32;1.45;;;1.42;;
12884;SDS011;6510;51.362;7.370;2022-09-03T15:42:09;1.85;;;1.73;;
12884;SDS011;6510;51.362;7.370;2022-09-03T15:44:47;1.80;;;1.70;;
12884;SDS011;6510;51.362;7.370;2022-09-03T15:47:31;1.75;;;1.65;;
12884;SDS011;6510;51.362;7.370;2022-09-03T15:55:13;1.90;;;1.80;;
12884;SDS011;6510;51.362;7.370;2022-09-03T15:57:54;2.63;;;1.90;;
12884;SDS011;6510;51.362;7.370;2022-09-03T16:06:05;2.90;;;1.50;;
12884;SDS011;6510;51.362;7.370;2022-09-03T16:08:42;1.85;;;1.75;;
12884;SDS011;6510;51.362;7.370;2022-09-03T16:11:16;1.50;;;1.40;;
12884;SDS011;6510;51.362;7.370;2022-09-03T16:16:53;1.80;;;1.70;;
12884;SDS011;6510;51.362;7.370;2022-09-03T16:19:51;1.70;;;1.60;;
12884;SDS011;6510;51.362;7.370;2022-09-03T16:22:39;1.75;;;1.65;;
12884;SDS011;6510;51.362;7.370;2022-09-03T16:25:12;1.90;;;1.80;;
12884;SDS011;6510;51.362;7.370;2022-09-03T16:30:56;2.10;;;1.63;;
12884;SDS011;6510;51.362;7.370;2022-09-03T16:33:44;3.67;;;1.80;;
12884;SDS011;6510;51.362;7.370;2022-09-03T16:36:21;1.80;;;1.70;;
12884;SDS011;6510;51.362;7.370;2022-09-03T16:39:07;2.05;;;1.88;;
12884;SDS011;6510;51.362;7.370;2022-09-03T16:41:45;2.00;;;1.90;;
12884;SDS011;6510;51.362;7.370;2022-09-03T16:47:06;1.90;;;1.80;;
12884;SDS011;6510;51.362;7.370;2022-09-03T16:49:55;2.05;;;1.60;;
12884;SDS011;6510;51.362;7.370;2022-09-03T17:00:26;2.20;;;1.67;;
12884;SDS011;6510;51.362;7.370;2022-09-03T17:11:38;2.20;;;2.00;;
12884;SDS011;6510;51.362;7.370;2022-09-03T17:14:24;2.10;;;2.00;;
12884;SDS011;6510;51.362;7.370;2022-09-03T17:19:46;1.80;;;1.70;;
12884;SDS011;6510;51.362;7.370;2022-09-03T17:25:39;1.92;;;1.77;;
12884;SDS011;6510;51.362;7.370;2022-09-03T17:28:30;2.03;;;1.73;;
12884;SDS011;6510;51.362;7.370;2022-09-03T17:34:28;3.40;;;1.90;;
12884;SDS011;6510;51.362;7.370;2022-09-03T17:36:59;1.90;;;1.80;;
12884;SDS011;6510;51.362;7.370;2022-09-03T17:39:51;3.00;;;1.70;;
12884;SDS011;6510;51.362;7.370;2022-09-03T17:42:36;2.97;;;1.77;;
12884;SDS011;6510;51.362;7.370;2022-09-03T17:53:49;3.08;;;1.55;;
12884;SDS011;6510;51.362;7.370;2022-09-03T17:59:22;2.67;;;1.95;;
12884;SDS011;6510;51.362;7.370;2022-09-03T18:01:51;2.22;;;1.67;;
12884;SDS011;6510;51.362;7.370;2022-09-03T18:04:32;2.10;;;1.67;;
12884;SDS011;6510;51.362;7.370;2022-09-03T18:07:14;1.70;;;1.60;;
12884;SDS011;6510;51.362;7.370;2022-09-03T18:18:37;1.90;;;1.80;;
12884;SDS011;6510;51.362;7.370;2022-09-03T18:21:04;2.00;;;1.83;;
12884;SDS011;6510;51.362;7.370;2022-09-03T18:27:21;2.88;;;2.33;;
12884;SDS011;6510;51.362;7.370;2022-09-03T18:30:15;2.17;;;2.00;;
12884;SDS011;6510;51.362;7.370;2022-09-03T18:32:59;2.40;;;2.25;;
12884;SDS011;6510;51.362;7.370;2022-09-03T18:35:44;2.47;;;2.28;;
12884;SDS011;6510;51.362;7.370;2022-09-03T18:38:30;2.95;;;2.75;;
12884;SDS011;6510;51.362;7.370;2022-09-03T18:44:28;3.55;;;2.67;;
12884;SDS011;6510;51.362;7.370;2022-09-03T18:50:44;2.88;;;2.67;;
12884;SDS011;6510;51.362;7.370;2022-09-03T18:56:28;2.20;;;1.90;;
12884;SDS011;6510;51.362;7.370;2022-09-03T18:59:50;2.20;;;2.10;;
12884;SDS011;6510;51.362;7.370;2022-09-03T19:03:01;1.85;;;1.63;;
12884;SDS011;6510;51.362;7.370;2022-09-03T19:06:04;1.75;;;1.65;;
12884;SDS011;6510;51.362;7.370;2022-09-03T19:18:02;1.88;;;1.67;;
12884;SDS011;6510;51.362;7.370;2022-09-03T19:21:09;1.60;;;1.50;;
12884;SDS011;6510;51.362;7.370;2022-09-03T19:24:12;2.00;;;1.50;;
12884;SDS011;6510;51.362;7.370;2022-09-03T19:26:58;4.25;;;1.60;;
12884;SDS011;6510;51.362;7.370;2022-09-03T19:29:51;2.35;;;1.83;;
12884;SDS011;6510;51.362;7.370;2022-09-03T19:32:51;1.95;;;1.60;;
12884;SDS011;6510;51.362;7.370;2022-09-03T19:36:25;1.57;;;1.50;;
12884;SDS011;6510;51.362;7.370;2022-09-03T19:42:21;1.70;;;1.60;;
12884;SDS011;6510;51.362;7.370;2022-09-03T19:45:20;1.50;;;1.40;;
12884;SDS011;6510;51.362;7.370;2022-09-03T19:48:19;1.77;;;1.67;;
12884;SDS011;6510;51.362;7.370;2022-09-03T19:51:11;2.10;;;2.00;;
12884;SDS011;6510;51.362;7.370;2022-09-03T19:54:17;2.13;;;2.00;;
12884;SDS011;6510;51.362;7.370;2022-09-03T19:57:06;2.53;;;2.37;;
12884;SDS011;6510;51.362;7.370;2022-09-03T19:59:54;2.17;;;2.07;;
12884;SDS011;6510;51.362;7.370;2022-09-03T20:02:39;2.00;;;1.90;;
12884;SDS011;6510;51.362;7.370;2022-09-03T20:05:25;1.77;;;1.67;;
12884;SDS011;6510;51.362;7.370;2022-09-03T20:08:11;1.77;;;1.67;;
12884;SDS011;6510;51.362;7.370;2022-09-03T20:11:00;1.80;;;1.70;;
12884;SDS011;6510;51.362;7.370;2022-09-03T20:13:28;1.93;;;1.73;;
12884;SDS011;6510;51.362;7.370;2022-09-03T20:19:01;1.87;;;1.73;;
12884;SDS011;6510;51.362;7.370;2022-09-03T20:21:34;2.73;;;1.60;;
12884;SDS011;6510;51.362;7.370;2022-09-03T20:24:35;1.90;;;1.80;;
12884;SDS011;6510;51.362;7.370;2022-09-03T20:27:25;1.53;;;1.50;;
12884;SDS011;6510;51.362;7.370;2022-09-03T20:30:13;1.67;;;1.58;;
12884;SDS011;6510;51.362;7.370;2022-09-03T20:43:54;1.73;;;1.60;;
12884;SDS011;6510;51.362;7.370;2022-09-03T20:55:42;1.80;;;1.70;;
12884;SDS011;6510;51.362;7.370;2022-09-03T20:58:13;1.67;;;1.57;;
